Time;durP1;ratioP1;P1;durP2;ratioP2;P2;SDS_P1;SDS_P2;PMS_P1;PMS_P2;Temp;Humidity;BMP_temperature;BMP_pressure;BME280_temperature;BME280_humidity;BME280_pressure;Samples;Min_cycle;Max_cycle;Signal;HPM_P1;HPM_P2
2021/08/12 00:01:29;;;;;;;12.05;8.15;;;;;;;16.03;82.20;102081.16;5013241;28;20033;-64
2021/08/12 00:03:54;;;;;;;13.73;8.57;;;;;;;16.06;81.96;102080.16;5013135;28;20103;-64
2021/08/12 00:06:20;;;;;;;14.05;9.30;;;;;;;16.04;82.21;102080.22;5012774;28;20037;-64
2021/08/12 00:08:45;;;;;;;15.40;9.20;;;;;;;16.04;82.44;102074.03;5012946;28;20030;-65
2021/08/12 00:11:10;;;;;;;15.38;9.77;;;;;;;16.02;83.04;102068.78;5015044;28;20483;-64
2021/08/12 00:13:36;;;;;;;15.57;9.15;;;;;;;16.06;83.29;102064.13;5012673;28;20026;-64
2021/08/12 00:16:03;;;;;;;14.35;8.85;;;;;;;16.06;82.95;102069.47;5013030;28;20073;-64
2021/08/12 00:18:30;;;;;;;13.20;9.82;;;;;;;16.01;83.46;102067.03;5012747;28;20510;-64
2021/08/12 00:20:55;;;;;;;15.55;9.98;;;;;;;15.99;83.84;102068.03;5017743;28;20061;-64
2021/08/12 00:23:21;;;;;;;19.38;10.40;;;;;;;15.99;84.26;102070.72;5032405;28;20060;-64
2021/08/12 00:25:46;;;;;;;15.70;10.25;;;;;;;16.01;84.94;102082.19;5032511;28;20060;-64
2021/08/12 00:28:12;;;;;;;18.75;10.77;;;;;;;16.03;84.96;102070.47;5032531;28;20033;-64
2021/08/12 00:30:38;;;;;;;15.80;8.77;;;;;;;16.06;84.62;102072.13;5029067;28;20022;-64
2021/08/12 00:33:03;;;;;;;13.80;8.35;;;;;;;16.04;83.27;102061.53;5032806;28;20025;-64
2021/08/12 00:35:28;;;;;;;13.65;9.48;;;;;;;16.02;83.41;102059.88;5032297;28;20383;-64
2021/08/12 00:37:54;;;;;;;12.98;9.43;;;;;;;15.94;84.05;102062.91;5032234;28;20060;-64
2021/08/12 00:40:20;;;;;;;15.02;10.05;;;;;;;15.93;84.56;102058.50;5031773;28;20021;-64
2021/08/12 00:42:46;;;;;;;17.38;10.65;;;;;;;15.88;84.59;102056.06;5016681;28;20069;-64
2021/08/12 00:45:11;;;;;;;18.25;11.52;;;;;;;15.91;85.36;102067.53;5031559;28;20121;-64
2021/08/12 00:47:36;;;;;;;16.95;10.82;;;;;;;15.97;85.40;102061.91;5032370;28;20112;-64
2021/08/12 00:50:02;;;;;;;18.05;11.05;;;;;;;16.01;84.72;102064.34;5032638;28;20459;-64
2021/08/12 00:52:30;;;;;;;19.63;12.27;;;;;;;16.08;84.28;102059.56;5028723;28;20485;-64
2021/08/12 00:54:55;;;;;;;17.33;12.10;;;;;;;16.09;83.68;102049.75;5031872;28;20060;-64
2021/08/12 00:57:21;;;;;;;18.63;13.43;;;;;;;16.06;83.36;102045.41;5032149;28;20053;-64
2021/08/12 00:59:46;;;;;;;18.92;13.30;;;;;;;16.02;83.41;102044.72;5032332;28;20079;-64
2021/08/12 01:02:13;;;;;;;16.33;12.10;;;;;;;15.97;83.23;102057.44;5029952;28;20449;-64
2021/08/12 01:04:41;;;;;;;19.85;12.63;;;;;;;15.92;83.94;102053.25;5032010;28;20034;-64
2021/08/12 01:07:15;;;;;;;23.42;12.68;;;;;;;15.89;83.94;102048.91;5031792;28;20045;-63
2021/08/12 01:10:04;;;;;;;19.88;12.85;;;;;;;15.81;84.84;102046.59;5014181;28;20132;-64
2021/08/12 01:12:37;;;;;;;20.15;12.57;;;;;;;15.77;84.86;102050.34;5029933;28;20352;-64
2021/08/12 01:15:07;;;;;;;20.52;13.93;;;;;;;15.77;84.68;102045.00;5031843;28;20060;-64
2021/08/12 01:18:19;;;;;;;22.92;13.73;;;;;;;15.77;85.21;102042.31;5032087;28;20096;-64
2021/08/12 01:21:05;;;;;;;25.92;15.35;;;;;;;15.75;85.44;102038.00;5031756;28;20086;-64
2021/08/12 01:23:30;;;;;;;20.23;13.02;;;;;;;15.72;85.13;102044.34;5028182;28;20026;-64
2021/08/12 01:26:00;;;;;;;21.30;13.43;;;;;;;15.68;85.10;102040.09;5036064;28;20029;-64
2021/08/12 01:28:30;;;;;;;21.13;14.70;;;;;;;15.67;85.07;102039.22;5035725;28;20029;-64
2021/08/12 01:31:17;;;;;;;22.33;15.65;;;;;;;15.66;85.80;102050.81;5035713;28;20502;-63
2021/08/12 01:33:53;;;;;;;20.52;14.05;;;;;;;15.67;85.70;102051.72;5034011;28;20053;-64
2021/08/12 01:36:21;;;;;;;20.67;14.52;;;;;;;15.69;85.46;102056.03;5021027;28;20030;-64
2021/08/12 01:38:49;;;;;;;24.65;14.88;;;;;;;15.73;85.60;102051.44;5015587;28;20037;-64
2021/08/12 01:41:15;;;;;;;21.10;14.82;;;;;;;15.78;84.80;102044.06;5015630;28;20029;-63
2021/08/12 01:43:41;;;;;;;20.65;13.82;;;;;;;15.79;84.53;102036.91;5017056;28;20038;-64
2021/08/12 01:46:08;;;;;;;19.63;13.27;;;;;;;15.75;84.71;102032.66;5017110;28;20475;-64
2021/08/12 01:48:33;;;;;;;22.25;14.38;;;;;;;15.69;84.47;102021.34;5015585;28;20431;-64
2021/08/12 01:50:59;;;;;;;21.00;13.65;;;;;;;15.67;85.04;102035.69;5013709;28;20034;-63
2021/08/12 01:53:25;;;;;;;23.85;15.95;;;;;;;15.57;85.98;102024.56;5015806;28;20372;-64
2021/08/12 01:55:52;;;;;;;24.17;14.70;;;;;;;15.57;85.73;102038.81;5016997;28;20025;-64
2021/08/12 01:58:20;;;;;;;23.80;15.45;;;;;;;15.53;86.16;102025.66;5015740;28;20040;-64
2021/08/12 02:00:47;;;;;;;24.17;14.93;;;;;;;15.50;86.07;102029.34;5015397;28;20092;-63
2021/08/12 02:03:15;;;;;;;26.13;15.48;;;;;;;15.52;86.70;102024.78;5015625;28;20018;-64
2021/08/12 02:05:43;;;;;;;22.15;14.63;;;;;;;15.54;85.50;102014.91;5016019;28;20108;-63
2021/08/12 02:08:09;;;;;;;19.10;13.02;;;;;;;15.55;85.20;102008.63;5034907;28;20029;-64
2021/08/12 02:10:34;;;;;;;22.17;13.40;;;;;;;15.53;85.22;102005.16;5017052;28;20041;-63
2021/08/12 02:13:01;;;;;;;20.98;14.75;;;;;;;15.52;85.57;102003.41;5035077;28;20100;-64
2021/08/12 02:15:27;;;;;;;20.15;13.45;;;;;;;15.55;85.64;102007.78;5029010;28;20064;-64
2021/08/12 02:17:52;;;;;;;21.48;12.45;;;;;;;15.55;85.96;102013.13;5016081;28;20427;-64
2021/08/12 02:20:18;;;;;;;20.42;14.73;;;;;;;15.57;86.76;102001.44;5014943;28;20025;-63
2021/08/12 02:22:49;;;;;;;19.85;13.40;;;;;;;15.61;86.01;102003.94;5014978;28;20037;-64
2021/08/12 02:25:33;;;;;;;22.83;14.55;;;;;;;15.65;86.68;102017.09;5016246;28;20030;-62
2021/08/12 02:28:02;;;;;;;16.98;12.00;;;;;;;15.68;85.62;102013.41;5033396;28;20037;-64
2021/08/12 02:30:27;;;;;;;17.45;12.43;;;;;;;15.65;84.31;102008.19;5034717;28;20021;-63
2021/08/12 02:32:54;;;;;;;18.13;12.40;;;;;;;15.59;84.22;102000.47;5016343;28;20395;-63
2021/08/12 02:35:21;;;;;;;17.85;11.98;;;;;;;15.50;84.67;102001.75;5033236;28;20022;-63
2021/08/12 02:37:49;;;;;;;18.08;12.63;;;;;;;15.43;85.00;102008.34;5015977;28;20061;-64
2021/08/12 02:40:15;;;;;;;21.20;12.43;;;;;;;15.39;85.22;102007.63;5014563;28;20030;-64
2021/08/12 02:42:42;;;;;;;20.00;12.77;;;;;;;15.33;85.57;101998.09;5014791;28;20083;-63
2021/08/12 02:45:08;;;;;;;20.60;12.50;;;;;;;15.31;85.48;102007.13;5014942;28;20029;-63
2021/08/12 02:47:35;;;;;;;18.35;12.55;;;;;;;15.30;85.80;102011.56;5015475;28;20026;-63
2021/08/12 02:50:03;;;;;;;20.75;12.90;;;;;;;15.27;85.96;102010.84;5015618;28;20060;-63
2021/08/12 02:52:28;;;;;;;20.40;12.75;;;;;;;15.21;85.95;102009.34;5014318;28;20061;-64
2021/08/12 02:54:55;;;;;;;19.70;12.57;;;;;;;15.18;86.05;102004.13;5013955;28;20076;-63
2021/08/12 02:57:21;;;;;;;18.13;11.90;;;;;;;15.13;86.07;102007.00;5015561;28;20033;-64
2021/08/12 02:59:48;;;;;;;22.45;12.82;;;;;;;15.09;86.15;102008.09;5015606;28;20038;-64
2021/08/12 03:02:16;;;;;;;18.30;12.18;;;;;;;15.06;86.34;102008.22;5016853;28;20096;-64
2021/08/12 03:04:43;;;;;;;19.42;12.60;;;;;;;15.04;86.25;102010.97;5028535;28;20064;-64
2021/08/12 03:07:09;;;;;;;19.95;13.30;;;;;;;14.99;86.20;102007.63;5032319;28;20065;-64
2021/08/12 03:09:35;;;;;;;18.70;12.50;;;;;;;14.94;86.24;102006.97;5034170;28;20079;-64
2021/08/12 03:12:02;;;;;;;20.05;13.02;;;;;;;14.89;86.81;102008.97;5031990;28;20029;-64
2021/08/12 03:14:30;;;;;;;22.88;14.75;;;;;;;14.88;86.99;102009.91;5033802;28;20026;-64
2021/08/12 03:16:57;;;;;;;20.88;14.02;;;;;;;14.88;87.16;102012.56;5033719;28;20386;-64
2021/08/12 03:19:23;;;;;;;26.67;14.70;;;;;;;14.89;87.58;102012.50;5018047;28;20026;-64
2021/08/12 03:22:09;;;;;;;26.27;15.80;;;;;;;14.92;87.55;102011.50;5025388;28;20112;-64
2021/08/12 03:24:39;;;;;;;23.33;13.85;;;;;;;14.90;88.07;102011.56;5033550;28;20475;-62
2021/08/12 03:27:04;;;;;;;21.95;14.20;;;;;;;14.90;87.51;102014.25;5033510;28;20025;-64
2021/08/12 03:29:30;;;;;;;22.98;13.75;;;;;;;14.88;87.09;102018.75;5033413;28;20380;-64
2021/08/12 03:31:56;;;;;;;20.30;13.00;;;;;;;14.86;87.07;102023.31;5031992;28;20029;-64
2021/08/12 03:34:21;;;;;;;21.17;13.90;;;;;;;14.92;87.80;102016.84;5033454;28;20501;-63
2021/08/12 03:36:47;;;;;;;23.05;14.30;;;;;;;15.01;87.57;102021.78;5033311;28;20084;-64
2021/08/12 03:39:12;;;;;;;27.63;16.55;;;;;;;15.09;88.02;102016.09;5031779;28;20120;-63
2021/08/12 03:41:38;;;;;;;22.60;15.02;;;;;;;15.22;87.80;102011.06;5032647;28;20021;-64
2021/08/12 03:44:03;;;;;;;21.15;14.45;;;;;;;15.31;87.70;102010.63;5032277;28;20064;-64
2021/08/12 03:46:29;;;;;;;24.15;14.85;;;;;;;15.39;87.62;102007.63;5033051;28;20040;-64
2021/08/12 03:48:54;;;;;;;22.20;13.88;;;;;;;15.44;87.10;102002.06;5031485;28;20017;-64
2021/08/12 03:51:19;;;;;;;27.85;14.98;;;;;;;15.48;87.19;102012.50;5033369;28;20065;-64
2021/08/12 03:53:45;;;;;;;23.08;14.88;;;;;;;15.52;87.04;102005.22;5031397;28;20028;-64
2021/08/12 03:56:10;;;;;;;26.33;14.90;;;;;;;15.52;86.74;102006.09;5032774;28;20025;-64
2021/08/12 03:58:37;;;;;;;26.85;14.30;;;;;;;15.53;86.50;102005.16;5033127;28;20060;-64
2021/08/12 04:01:02;;;;;;;23.10;15.13;;;;;;;15.55;86.86;102016.63;5031394;28;20109;-64
2021/08/12 04:03:28;;;;;;;22.10;14.00;;;;;;;15.56;87.17;102006.81;5031268;28;20108;-64
2021/08/12 04:05:53;;;;;;;23.02;14.20;;;;;;;15.59;87.57;102004.00;5032646;28;20045;-64
2021/08/12 04:08:18;;;;;;;22.38;15.07;;;;;;;15.62;87.37;102011.88;5032759;28;20075;-64
2021/08/12 04:10:44;;;;;;;22.23;13.90;;;;;;;15.67;87.22;102011.66;5031067;28;20498;-64
2021/08/12 04:13:09;;;;;;;22.42;15.02;;;;;;;15.69;87.10;102012.44;5032621;28;20026;-64
2021/08/12 04:15:35;;;;;;;21.92;14.07;;;;;;;15.69;86.88;102004.41;5031093;28;20387;-64
2021/08/12 04:18:00;;;;;;;25.40;14.32;;;;;;;15.70;86.96;102012.38;5032852;28;20057;-64
2021/08/12 04:20:25;;;;;;;18.77;12.63;;;;;;;15.71;87.14;102016.75;5030972;28;20068;-63
2021/08/12 04:22:51;;;;;;;21.83;13.60;;;;;;;15.72;87.15;102015.81;5032678;28;20103;-64
2021/08/12 04:25:16;;;;;;;20.13;12.90;;;;;;;15.73;87.09;102017.56;5031007;28;20033;-63
2021/08/12 04:27:41;;;;;;;20.35;13.02;;;;;;;15.75;86.87;102021.97;5032218;28;20026;-64
2021/08/12 04:30:08;;;;;;;23.40;14.18;;;;;;;15.78;86.75;102022.69;5030984;28;20056;-64
2021/08/12 04:32:35;;;;;;;22.02;13.60;;;;;;;15.79;86.97;102019.06;5032594;28;20035;-64
2021/08/12 04:35:01;;;;;;;22.10;13.68;;;;;;;15.77;87.08;102022.75;5030851;28;20463;-64
2021/08/12 04:37:35;;;;;;;23.58;13.27;;;;;;;15.72;86.34;102015.81;5032373;28;20045;-64
2021/08/12 04:40:01;;;;;;;19.38;13.32;;;;;;;15.71;87.19;102021.25;5030858;28;20029;-64
2021/08/12 04:42:26;;;;;;;24.13;14.55;;;;;;;15.75;87.47;102020.16;5031143;28;20399;-64
2021/08/12 04:44:52;;;;;;;26.60;14.13;;;;;;;15.79;87.12;102027.06;5018522;28;20037;-63
2021/08/12 04:47:17;;;;;;;22.77;12.88;;;;;;;15.83;86.68;102031.38;5031838;28;20022;-63
2021/08/12 04:49:42;;;;;;;21.85;14.10;;;;;;;15.86;86.83;102041.91;5030564;28;20033;-63
2021/08/12 04:52:08;;;;;;;22.42;14.02;;;;;;;15.92;86.70;102035.44;5032468;28;20030;-64
2021/08/12 04:54:33;;;;;;;22.30;14.50;;;;;;;15.94;86.70;102038.03;5032300;28;20597;-64
2021/08/12 04:56:59;;;;;;;22.95;14.18;;;;;;;15.96;86.39;102038.78;5030565;28;20071;-64
2021/08/12 04:59:24;;;;;;;24.52;14.55;;;;;;;15.99;86.34;102036.84;5031607;28;20048;-64
2021/08/12 05:01:53;;;;;;;23.00;14.07;;;;;;;16.02;86.49;102035.81;5036387;28;20071;-64
2021/08/12 05:04:18;;;;;;;29.20;14.45;;;;;;;16.08;85.40;102034.69;5036422;28;20021;-64
2021/08/12 05:06:43;;;;;;;23.58;14.18;;;;;;;16.11;85.98;102026.50;5035893;28;20137;-64
2021/08/12 05:09:09;;;;;;;27.50;14.65;;;;;;;16.12;85.74;102020.22;5034364;28;20487;-64
2021/08/12 05:11:34;;;;;;;23.92;15.48;;;;;;;16.14;85.87;102019.19;5034317;28;20030;-64
2021/08/12 05:13:59;;;;;;;26.00;15.05;;;;;;;16.21;85.05;102015.28;5035974;28;20021;-64
2021/08/12 05:16:25;;;;;;;23.08;14.90;;;;;;;16.26;85.28;102015.03;5035802;28;20072;-64
2021/08/12 05:18:50;;;;;;;24.13;14.75;;;;;;;16.29;84.87;102022.03;5034544;28;20029;-64
2021/08/12 05:21:15;;;;;;;23.55;14.77;;;;;;;16.30;84.85;102021.97;5034158;28;20033;-64
2021/08/12 05:23:42;;;;;;;27.15;16.85;;;;;;;16.32;84.93;102025.44;5036069;28;20029;-64
2021/08/12 05:26:07;;;;;;;25.38;15.13;;;;;;;16.36;84.92;102024.31;5035667;28;20113;-64
2021/08/12 05:28:32;;;;;;;30.23;17.60;;;;;;;16.34;84.69;102018.22;5033634;28;20104;-64
2021/08/12 05:31:01;;;;;;;26.73;16.77;;;;;;;16.37;84.91;102030.56;5034378;28;20091;-64
2021/08/12 05:33:26;;;;;;;29.48;16.35;;;;;;;16.38;84.77;102027.81;5017210;28;20022;-65
2021/08/12 05:35:51;;;;;;;28.73;17.13;;;;;;;16.42;84.35;102028.50;4998065;28;20509;-64
2021/08/12 05:38:17;;;;;;;29.23;17.95;;;;;;;16.38;85.28;102030.47;5015931;28;20042;-64
2021/08/12 05:40:42;;;;;;;29.80;17.27;;;;;;;16.38;84.77;102027.81;5016703;28;20053;-64
2021/08/12 05:43:07;;;;;;;31.70;17.13;;;;;;;16.39;84.71;102023.31;5031991;28;20083;-64
2021/08/12 05:45:33;;;;;;;33.55;19.30;;;;;;;16.37;85.45;102030.56;5035235;28;20025;-64
2021/08/12 05:47:58;;;;;;;27.77;16.77;;;;;;;16.44;85.22;102023.09;5035155;28;20029;-64
2021/08/12 05:50:23;;;;;;;39.75;20.55;;;;;;;16.47;85.02;102036.28;5015702;28;20083;-64
2021/08/12 05:52:49;;;;;;;33.13;16.85;;;;;;;16.54;84.58;102033.22;5033565;28;20022;-64
2021/08/12 05:55:14;;;;;;;24.60;15.57;;;;;;;16.65;84.22;102031.81;5035177;28;20109;-64
2021/08/12 05:57:39;;;;;;;24.05;14.38;;;;;;;16.68;83.34;102029.00;5035540;28;20022;-65
2021/08/12 06:00:05;;;;;;;23.50;15.32;;;;;;;16.74;82.86;102028.66;5034822;28;20383;-64
2021/08/12 06:02:32;;;;;;;25.67;14.65;;;;;;;16.78;82.46;102035.59;5000261;28;20030;-64
2021/08/12 06:04:57;;;;;;;22.85;13.93;;;;;;;16.83;82.26;102030.88;5017029;28;20056;-64
2021/08/12 06:07:23;;;;;;;23.67;13.90;;;;;;;16.84;81.49;102031.72;5033783;28;20514;-64
2021/08/12 06:09:48;;;;;;;27.15;14.52;;;;;;;16.95;80.95;102039.22;5034757;28;20061;-64
2021/08/12 06:12:13;;;;;;;21.40;13.35;;;;;;;16.99;80.75;102035.44;5033048;28;20025;-65
2021/08/12 06:14:39;;;;;;;24.60;13.77;;;;;;;17.06;80.07;102050.22;5033349;28;20037;-64
2021/08/12 06:17:04;;;;;;;22.50;13.98;;;;;;;17.08;80.32;102042.13;5034619;28;20116;-64
2021/08/12 06:19:29;;;;;;;22.15;14.05;;;;;;;17.10;79.37;102043.75;5034795;28;20383;-64
2021/08/12 06:21:54;;;;;;;26.65;13.85;;;;;;;17.13;79.05;102037.38;5033156;28;20472;-64
2021/08/12 06:24:20;;;;;;;37.10;17.20;;;;;;;17.17;79.21;102045.16;5015182;28;20040;-63
2021/08/12 06:26:45;;;;;;;24.10;13.45;;;;;;;17.23;78.64;102052.00;5034182;28;20108;-64
2021/08/12 06:29:11;;;;;;;19.90;12.43;;;;;;;17.28;78.27;102057.97;5032365;28;20033;-65
2021/08/12 06:31:37;;;;;;;21.25;12.35;;;;;;;17.36;77.62;102049.53;5026262;28;20103;-63
2021/08/12 06:34:03;;;;;;;24.27;13.48;;;;;;;17.36;78.63;102046.84;5027943;28;20567;-64
2021/08/12 06:36:29;;;;;;;20.70;12.60;;;;;;;17.42;77.70;102043.84;5034765;28;20116;-64
2021/08/12 06:38:59;;;;;;;19.27;11.98;;;;;;;17.45;77.07;102042.81;5034209;28;20029;-64
2021/08/12 06:41:24;;;;;;;20.13;12.18;;;;;;;17.43;78.13;102042.88;5034821;28;20033;-63
2021/08/12 06:43:49;;;;;;;27.42;14.18;;;;;;;17.51;77.28;102046.00;5034131;28;20035;-62
2021/08/12 06:46:15;;;;;;;20.25;11.90;;;;;;;17.56;77.17;102052.91;5014641;28;20021;-63
2021/08/12 06:48:40;;;;;;;17.75;10.50;;;;;;;17.60;76.71;102050.00;5013033;28;20049;-63
2021/08/12 06:51:06;;;;;;;16.73;9.70;;;;;;;17.64;75.34;102048.00;5020591;28;20363;-63
2021/08/12 06:53:31;;;;;;;15.95;9.13;;;;;;;17.63;75.47;102051.63;5018365;28;20033;-63
2021/08/12 06:55:56;;;;;;;14.20;8.52;;;;;;;17.67;75.38;102050.50;5024482;28;20107;-64
2021/08/12 06:58:22;;;;;;;17.52;9.40;;;;;;;17.65;75.75;102049.75;5021280;28;20061;-62
2021/08/12 07:00:47;;;;;;;14.88;8.48;;;;;;;17.75;75.44;102056.31;5009692;28;20145;-64
2021/08/12 07:03:12;;;;;;;13.18;8.15;;;;;;;17.78;75.03;102047.25;5014508;28;20025;-63
2021/08/12 07:05:38;;;;;;;16.60;8.73;;;;;;;17.83;74.96;102048.69;5044071;28;20480;-64
2021/08/12 07:08:05;;;;;;;34.92;13.70;;;;;;;17.93;74.52;102046.41;5032100;28;20086;-64
2021/08/12 07:10:31;;;;;;;14.20;8.27;;;;;;;18.01;73.32;102046.81;5031874;28;20155;-63
2021/08/12 07:12:56;;;;;;;11.60;7.32;;;;;;;18.02;73.56;102055.75;5029380;28;20033;-64
2021/08/12 07:15:24;;;;;;;11.95;7.43;;;;;;;18.09;72.68;102045.53;5024946;28;20096;-63
2021/08/12 07:17:49;;;;;;;11.85;6.72;;;;;;;18.07;71.82;102042.06;5030930;28;20030;-63
2021/08/12 07:20:14;;;;;;;12.95;6.53;;;;;;;18.13;72.06;102041.72;5031145;28;20018;-63
2021/08/12 07:22:42;;;;;;;12.82;7.38;;;;;;;18.15;72.27;102046.03;5030275;28;20040;-63
2021/08/12 07:25:08;;;;;;;12.05;6.72;;;;;;;18.25;71.54;102061.56;5031193;28;20152;-64
2021/08/12 07:27:34;;;;;;;10.60;6.35;;;;;;;18.30;72.04;102054.13;5027414;28;20100;-64
2021/08/12 07:29:59;;;;;;;10.05;5.93;;;;;;;18.38;71.15;102057.25;5026446;28;20135;-63
2021/08/12 07:32:25;;;;;;;10.77;5.63;;;;;;;18.48;70.81;102066.47;5030492;28;20435;-64
2021/08/12 07:34:50;;;;;;;8.68;5.00;;;;;;;18.61;69.73;102063.94;5014679;28;20317;-63
2021/08/12 07:37:15;;;;;;;9.68;4.82;;;;;;;18.61;68.42;102066.59;5011509;28;20183;-64
2021/08/12 07:39:41;;;;;;;8.35;4.43;;;;;;;18.64;66.35;102071.81;5011298;28;20041;-64
2021/08/12 07:42:06;;;;;;;7.85;4.13;;;;;;;18.69;65.74;102071.50;5010874;28;20014;-64
2021/08/12 07:44:32;;;;;;;9.27;4.22;;;;;;;18.72;65.92;102063.31;5015097;28;20414;-64
2021/08/12 07:46:57;;;;;;;13.55;5.80;;;;;;;18.80;65.92;102061.00;5029052;28;20053;-64
2021/08/12 07:49:22;;;;;;;14.07;4.72;;;;;;;18.86;65.25;102059.75;5030712;28;20022;-64
2021/08/12 07:51:48;;;;;;;7.30;3.40;;;;;;;18.92;64.85;102053.19;5030110;28;20345;-63
2021/08/12 07:54:14;;;;;;;9.57;3.90;;;;;;;19.06;65.03;102057.72;5029012;28;20025;-63
2021/08/12 07:56:39;;;;;;;11.38;3.80;;;;;;;19.05;64.61;102058.69;5029969;28;20194;-63
2021/08/12 07:59:04;;;;;;;7.35;4.03;;;;;;;19.11;64.19;102059.16;5029019;28;20053;-64
2021/08/12 08:01:29;;;;;;;8.63;3.85;;;;;;;19.09;64.83;102058.41;5021501;28;20438;-64
2021/08/12 08:03:56;;;;;;;9.43;3.85;;;;;;;19.13;63.99;102061.75;5030115;28;20057;-64
2021/08/12 08:06:21;;;;;;;12.02;4.40;;;;;;;19.25;63.18;102061.00;5028488;28;20045;-61
2021/08/12 08:08:47;;;;;;;18.27;5.65;;;;;;;19.34;61.41;102064.09;5028023;28;20134;-64
2021/08/12 08:11:15;;;;;;;7.35;3.72;;;;;;;19.38;61.24;102058.41;5028016;28;20052;-64
2021/08/12 08:13:41;;;;;;;6.00;3.10;;;;;;;19.46;61.21;102060.59;5021686;28;20108;-63
2021/08/12 08:16:06;;;;;;;6.95;3.15;;;;;;;19.47;62.70;102059.66;5018810;28;20175;-63
2021/08/12 08:18:32;;;;;;;6.70;3.47;;;;;;;19.57;61.96;102065.31;5022140;28;20262;-64
2021/08/12 08:20:58;;;;;;;7.03;3.20;;;;;;;19.60;61.94;102067.78;5020567;28;20037;-65
2021/08/12 08:23:23;;;;;;;7.40;3.38;;;;;;;19.58;61.72;102067.91;5026233;28;20074;-63
2021/08/12 08:25:49;;;;;;;7.10;3.38;;;;;;;19.71;62.05;102065.28;5029043;28;20017;-64
2021/08/12 08:28:14;;;;;;;7.20;3.38;;;;;;;19.78;62.86;102071.13;5027493;28;20018;-64
2021/08/12 08:30:40;;;;;;;7.78;3.28;;;;;;;19.96;61.14;102067.28;5028384;28;20055;-64
2021/08/12 08:33:06;;;;;;;6.57;3.03;;;;;;;20.04;59.99;102066.78;5027001;28;20073;-63
2021/08/12 08:35:32;;;;;;;10.98;3.45;;;;;;;20.09;60.62;102063.78;5028857;28;20167;-61
2021/08/12 08:37:58;;;;;;;7.03;3.40;;;;;;;20.14;60.43;102064.34;5028102;28;20367;-64
2021/08/12 08:40:25;;;;;;;7.28;3.45;;;;;;;20.20;60.30;102065.78;5028253;28;20044;-63
2021/08/12 08:42:50;;;;;;;7.05;3.50;;;;;;;20.28;59.68;102069.69;5016800;28;20403;-62
2021/08/12 08:45:21;;;;;;;5.97;3.15;;;;;;;20.46;60.38;102072.06;5033830;28;20025;-63
2021/08/12 08:47:49;;;;;;;6.55;3.20;;;;;;;20.60;59.18;102065.75;5032517;28;20018;-63
2021/08/12 08:50:17;;;;;;;6.95;2.55;;;;;;;20.63;57.99;102058.34;5027618;28;20129;-62
2021/08/12 08:52:44;;;;;;;6.78;2.75;;;;;;;20.90;56.13;102060.13;5028295;28;20082;-64
2021/08/12 08:55:13;;;;;;;5.60;2.92;;;;;;;21.03;56.17;102062.84;5028802;28;20091;-64
2021/08/12 08:57:39;;;;;;;8.15;3.30;;;;;;;21.37;54.72;102064.97;5029453;28;20033;-64
2021/08/12 09:00:07;;;;;;;5.65;2.88;;;;;;;21.87;53.40;102071.28;5026628;28;20052;-63
2021/08/12 09:02:34;;;;;;;7.20;3.05;;;;;;;22.48;51.45;102069.53;5011715;28;20053;-65
2021/08/12 09:04:59;;;;;;;5.47;2.58;;;;;;;23.72;49.01;102068.84;5015703;28;20109;-65
2021/08/12 09:07:25;;;;;;;7.07;3.28;;;;;;;25.03;44.87;102057.88;5024816;28;20377;-64
2021/08/12 09:09:50;;;;;;;6.10;2.70;;;;;;;26.12;41.97;102070.00;5041570;28;20044;-63
2021/08/12 09:12:16;;;;;;;13.65;5.13;;;;;;;26.74;41.16;102072.44;5029127;28;20029;-64
2021/08/12 09:14:42;;;;;;;4.55;2.55;;;;;;;27.17;40.75;102070.19;5021660;28;20256;-63
2021/08/12 09:17:20;;;;;;;5.05;2.75;;;;;;;27.25;39.49;102079.31;5020328;28;20041;-64
2021/08/12 09:20:14;;;;;;;6.32;3.00;;;;;;;27.17;41.46;102070.19;5046000;28;20215;-64
2021/08/12 09:22:50;;;;;;;6.43;3.20;;;;;;;27.28;41.26;102073.56;5016403;28;20030;-64
2021/08/12 09:25:39;;;;;;;5.43;2.92;;;;;;;27.36;41.10;102074.69;5011959;28;20116;-64
2021/08/12 09:28:30;;;;;;;6.00;2.70;;;;;;;27.66;39.89;102070.00;5028995;28;20021;-65
2021/08/12 09:31:02;;;;;;;6.55;2.90;;;;;;;28.24;39.42;102068.78;5029065;28;20044;-63
2021/08/12 09:33:29;;;;;;;8.23;3.30;;;;;;;28.47;39.60;102074.59;5027967;28;20391;-63
2021/08/12 09:35:55;;;;;;;6.38;3.30;;;;;;;28.73;39.10;102071.94;5029433;28;20053;-62
2021/08/12 09:38:21;;;;;;;7.97;3.00;;;;;;;28.99;38.54;102064.78;5027956;28;20476;-61
2021/08/12 09:40:58;;;;;;;5.32;2.97;;;;;;;28.90;39.13;102074.78;5028544;28;20018;-62
2021/08/12 09:43:30;;;;;;;7.63;3.05;;;;;;;29.49;37.41;102068.63;5028887;28;20025;-62
2021/08/12 09:45:56;;;;;;;6.43;3.10;;;;;;;29.21;37.82;102082.47;5013267;28;20106;-63
2021/08/12 09:48:23;;;;;;;7.30;3.08;;;;;;;28.44;39.42;102070.31;5012458;28;20396;-61
2021/08/12 09:51:06;;;;;;;7.40;3.17;;;;;;;28.11;40.36;102085.50;5012705;28;20442;-63
2021/08/12 09:53:32;;;;;;;5.18;3.00;;;;;;;28.74;39.29;102081.81;5012369;28;20037;-65
2021/08/12 09:56:07;;;;;;;8.57;3.80;;;;;;;28.68;39.87;102073.44;5012884;28;20025;-63
2021/08/12 09:58:35;;;;;;;6.05;3.08;;;;;;;28.63;39.56;102073.03;5012707;28;20490;-63
2021/08/12 10:01:16;;;;;;;5.95;2.95;;;;;;;29.06;38.46;102082.22;5012174;28;20057;-64
2021/08/12 10:03:42;;;;;;;8.73;3.10;;;;;;;28.28;39.06;102079.19;5012483;28;20025;-63
2021/08/12 10:06:24;;;;;;;7.70;2.90;;;;;;;28.89;38.56;102071.19;5012869;28;20356;-63
2021/08/12 10:08:50;;;;;;;8.13;3.28;;;;;;;29.40;39.35;102060.44;5028047;28;20071;-62
2021/08/12 10:11:30;;;;;;;6.90;3.30;;;;;;;29.48;38.22;102066.91;5013219;28;20097;-62
2021/08/12 10:13:59;;;;;;;8.80;4.03;;;;;;;29.54;37.87;102071.72;5030919;28;20243;-63
2021/08/12 10:16:27;;;;;;;6.95;3.53;;;;;;;29.48;40.28;102069.66;5012621;28;20059;-63
2021/08/12 10:18:55;;;;;;;6.70;2.80;;;;;;;29.70;37.21;102063.59;5030243;28;20033;-63
2021/08/12 10:21:21;;;;;;;5.05;2.50;;;;;;;29.93;37.93;102064.91;5029075;28;20167;-63
2021/08/12 10:23:50;;;;;;;7.38;2.72;;;;;;;29.88;40.58;102060.78;5011163;28;20504;-63
2021/08/12 10:26:18;;;;;;;4.75;2.60;;;;;;;30.11;36.36;102064.75;5029628;28;20118;-63
2021/08/12 10:28:48;;;;;;;8.25;2.92;;;;;;;30.16;36.40;102068.69;5030598;28;20359;-64
2021/08/12 10:31:18;;;;;;;5.50;2.90;;;;;;;30.55;35.62;102067.19;5030786;28;20148;-64
2021/08/12 10:33:44;;;;;;;4.82;2.47;;;;;;;29.94;37.52;102074.78;5029118;28;20037;-63
2021/08/12 10:36:09;;;;;;;8.75;2.85;;;;;;;30.29;36.41;102070.91;5030286;28;20041;-63
2021/08/12 10:38:35;;;;;;;4.60;2.65;;;;;;;30.04;36.66;102076.34;5029634;28;20091;-63
2021/08/12 10:41:02;;;;;;;5.47;3.25;;;;;;;29.85;37.44;102074.75;5011216;28;20079;-63
2021/08/12 10:43:29;;;;;;;4.88;2.90;;;;;;;29.62;37.66;102066.31;5009077;28;20428;-64
2021/08/12 10:45:59;;;;;;;5.35;3.13;;;;;;;30.04;36.84;102070.00;5011302;28;20034;-64
2021/08/12 10:48:25;;;;;;;6.32;3.10;;;;;;;30.31;36.20;102065.25;5019405;28;20025;-64
2021/08/12 10:51:00;;;;;;;5.97;3.17;;;;;;;29.97;37.06;102069.00;5030667;28;20455;-63
2021/08/12 10:53:26;;;;;;;6.03;3.20;;;;;;;29.96;39.09;102068.13;5030775;28;20498;-61
2021/08/12 10:55:51;;;;;;;4.20;3.08;;;;;;;29.47;38.34;102068.81;5020403;28;20053;-62
2021/08/12 11:00:51;;;;;;;10.93;4.10;;;;;;;28.54;40.41;102078.38;5028635;28;20025;-62
2021/08/12 11:03:31;;;;;;;5.30;3.35;;;;;;;27.78;42.30;102079.66;5027264;28;20040;-63
2021/08/12 11:06:04;;;;;;;6.35;3.55;;;;;;;27.19;43.04;102079.03;5028984;28;20030;-63
2021/08/12 11:08:48;;;;;;;6.07;3.40;;;;;;;26.77;45.55;102083.88;4991555;28;1056893;-64
2021/08/12 11:11:23;;;;;;;8.20;4.05;;;;;;;26.44;44.74;102085.16;5011799;28;20042;-62
2021/08/12 11:13:53;;;;;;;7.30;3.70;;;;;;;25.89;47.48;102082.94;5026345;28;20499;-63
2021/08/12 11:16:42;;;;;;;6.10;3.40;;;;;;;25.26;47.85;102076.69;4995976;28;20038;-63
2021/08/12 11:19:29;;;;;;;8.02;3.53;;;;;;;25.70;46.40;102081.03;4967362;28;20151;-63